sensor_id;sensor_type;location;lat;lon;timestamp;P1;durP1;ratioP1;P2;durP2;ratioP2
5987;SDS011;3021;51.000;6.980;2024-02-15T00:01:56;17.40;;;16.30;;
5987;SDS011;3021;51.000;6.980;2024-02-15T00:04:22;15.60;;;14.70;;
5987;SDS011;3021;51.000;6.980;2024-02-15T00:06:47;21.80;;;20.60;;
5987;SDS011;3021;51.000;6.980;2024-02-15T00:09:13;14.90;;;13.90;;
5987;SDS011;3021;51.000;6.980;2024-02-15T00:11:38;16.97;;;16.00;;
5987;SDS011;3021;51.000;6.980;2024-02-15T00:14:04;17.60;;;16.30;;
5987;SDS011;3021;51.000;6.980;2024-02-15T00:16:29;16.52;;;15.52;;
5987;SDS011;3021;51.000;6.980;2024-02-15T00:18:55;20.10;;;18.83;;
5987;SDS011;3021;51.000;6.980;2024-02-15T00:21:20;18.87;;;17.77;;
5987;SDS011;3021;51.000;6.980;2024-02-15T00:23:47;13.23;;;12.32;;
5987;SDS011;3021;51.000;6.980;2024-02-15T00:26:13;13.07;;;12.13;;
5987;SDS011;3021;51.000;6.980;2024-02-15T00:28:41;21.90;;;20.50;;
5987;SDS011;3021;51.000;6.980;2024-02-15T00:31:06;12.68;;;11.77;;
5987;SDS011;3021;51.000;6.980;2024-02-15T00:33:33;18.13;;;17.10;;
5987;SDS011;3021;51.000;6.980;2024-02-15T00:35:58;13.93;;;13.13;;
5987;SDS011;3021;51.000;6.980;2024-02-15T00:38:23;15.67;;;14.67;;
5987;SDS011;3021;51.000;6.980;2024-02-15T00:40:49;12.70;;;11.90;;
5987;SDS011;3021;51.000;6.980;2024-02-15T00:43:14;10.52;;;9.93;;
5987;SDS011;3021;51.000;6.980;2024-02-15T00:45:39;8.47;;;7.83;;
5987;SDS011;3021;51.000;6.980;2024-02-15T00:48:05;9.60;;;8.98;;
5987;SDS011;3021;51.000;6.980;2024-02-15T00:50:31;16.80;;;15.73;;
5987;SDS011;3021;51.000;6.980;2024-02-15T00:52:56;14.10;;;13.20;;
5987;SDS011;3021;51.000;6.980;2024-02-15T00:55:22;10.23;;;9.53;;
5987;SDS011;3021;51.000;6.980;2024-02-15T00:57:47;17.13;;;16.05;;
5987;SDS011;3021;51.000;6.980;2024-02-15T01:00:12;9.23;;;8.53;;
5987;SDS011;3021;51.000;6.980;2024-02-15T01:02:38;9.82;;;9.13;;
5987;SDS011;3021;51.000;6.980;2024-02-15T01:05:03;12.27;;;11.13;;
5987;SDS011;3021;51.000;6.980;2024-02-15T01:07:29;14.02;;;13.02;;
5987;SDS011;3021;51.000;6.980;2024-02-15T01:09:54;14.23;;;13.20;;
5987;SDS011;3021;51.000;6.980;2024-02-15T01:12:20;17.20;;;15.90;;
5987;SDS011;3021;51.000;6.980;2024-02-15T01:14:46;28.07;;;26.23;;
5987;SDS011;3021;51.000;6.980;2024-02-15T01:17:12;17.65;;;16.40;;
5987;SDS011;3021;51.000;6.980;2024-02-15T01:19:38;18.05;;;16.88;;
5987;SDS011;3021;51.000;6.980;2024-02-15T01:22:03;15.37;;;14.37;;
5987;SDS011;3021;51.000;6.980;2024-02-15T01:24:29;10.33;;;9.60;;
5987;SDS011;3021;51.000;6.980;2024-02-15T01:26:55;13.10;;;11.80;;
5987;SDS011;3021;51.000;6.980;2024-02-15T01:29:20;9.83;;;9.03;;
5987;SDS011;3021;51.000;6.980;2024-02-15T01:31:46;13.70;;;12.53;;
5987;SDS011;3021;51.000;6.980;2024-02-15T01:34:11;9.20;;;8.37;;
5987;SDS011;3021;51.000;6.980;2024-02-15T01:36:36;14.03;;;13.03;;
5987;SDS011;3021;51.000;6.980;2024-02-15T01:39:02;20.70;;;19.03;;
5987;SDS011;3021;51.000;6.980;2024-02-15T01:41:27;13.57;;;12.35;;
5987;SDS011;3021;51.000;6.980;2024-02-15T01:43:52;18.10;;;16.70;;
5987;SDS011;3021;51.000;6.980;2024-02-15T01:46:18;22.97;;;21.23;;
5987;SDS011;3021;51.000;6.980;2024-02-15T01:48:45;26.95;;;25.23;;
5987;SDS011;3021;51.000;6.980;2024-02-15T01:51:11;19.23;;;17.98;;
5987;SDS011;3021;51.000;6.980;2024-02-15T01:53:40;25.02;;;23.33;;
5987;SDS011;3021;51.000;6.980;2024-02-15T01:56:07;25.83;;;24.27;;
5987;SDS011;3021;51.000;6.980;2024-02-15T01:58:33;18.20;;;16.97;;
5987;SDS011;3021;51.000;6.980;2024-02-15T02:00:59;22.23;;;20.75;;
5987;SDS011;3021;51.000;6.980;2024-02-15T02:03:26;24.73;;;22.98;;
5987;SDS011;3021;51.000;6.980;2024-02-15T02:05:51;33.40;;;31.47;;
5987;SDS011;3021;51.000;6.980;2024-02-15T02:08:17;16.03;;;14.93;;
5987;SDS011;3021;51.000;6.980;2024-02-15T02:10:43;15.23;;;14.13;;
5987;SDS011;3021;51.000;6.980;2024-02-15T02:13:10;26.10;;;24.52;;
5987;SDS011;3021;51.000;6.980;2024-02-15T02:15:36;11.32;;;10.23;;
5987;SDS011;3021;51.000;6.980;2024-02-15T02:18:02;16.77;;;15.65;;
5987;SDS011;3021;51.000;6.980;2024-02-15T02:20:33;10.85;;;10.10;;
5987;SDS011;3021;51.000;6.980;2024-02-15T02:23:03;17.40;;;16.20;;
5987;SDS011;3021;51.000;6.980;2024-02-15T02:25:35;8.98;;;8.40;;
5987;SDS011;3021;51.000;6.980;2024-02-15T02:28:00;11.90;;;10.80;;
5987;SDS011;3021;51.000;6.980;2024-02-15T02:30:26;14.63;;;13.52;;
5987;SDS011;3021;51.000;6.980;2024-02-15T02:32:54;16.63;;;15.45;;
5987;SDS011;3021;51.000;6.980;2024-02-15T02:35:24;13.02;;;11.82;;
5987;SDS011;3021;51.000;6.980;2024-02-15T02:37:50;15.23;;;14.13;;
5987;SDS011;3021;51.000;6.980;2024-02-15T02:40:18;9.55;;;8.75;;
5987;SDS011;3021;51.000;6.980;2024-02-15T02:42:50;8.97;;;8.27;;
5987;SDS011;3021;51.000;6.980;2024-02-15T02:45:17;8.80;;;7.60;;
5987;SDS011;3021;51.000;6.980;2024-02-15T02:47:44;11.38;;;10.55;;
5987;SDS011;3021;51.000;6.980;2024-02-15T02:50:12;7.70;;;7.00;;
5987;SDS011;3021;51.000;6.980;2024-02-15T02:52:38;6.78;;;5.10;;
5987;SDS011;3021;51.000;6.980;2024-02-15T02:55:04;6.35;;;5.75;;
5987;SDS011;3021;51.000;6.980;2024-02-15T02:57:33;5.15;;;4.40;;
5987;SDS011;3021;51.000;6.980;2024-02-15T03:00:05;5.05;;;4.40;;
5987;SDS011;3021;51.000;6.980;2024-02-15T03:02:34;8.10;;;7.13;;
5987;SDS011;3021;51.000;6.980;2024-02-15T03:05:01;7.07;;;5.43;;
5987;SDS011;3021;51.000;6.980;2024-02-15T03:07:29;14.37;;;13.27;;
5987;SDS011;3021;51.000;6.980;2024-02-15T03:09:57;8.32;;;7.30;;
5987;SDS011;3021;51.000;6.980;2024-02-15T03:12:22;9.80;;;8.87;;
5987;SDS011;3021;51.000;6.980;2024-02-15T03:14:47;7.80;;;4.73;;
5987;SDS011;3021;51.000;6.980;2024-02-15T03:17:13;7.22;;;6.45;;
5987;SDS011;3021;51.000;6.980;2024-02-15T03:19:38;8.47;;;7.73;;
5987;SDS011;3021;51.000;6.980;2024-02-15T03:22:03;14.13;;;13.10;;
5987;SDS011;3021;51.000;6.980;2024-02-15T03:24:29;14.48;;;13.18;;
5987;SDS011;3021;51.000;6.980;2024-02-15T03:26:54;9.70;;;8.60;;
5987;SDS011;3021;51.000;6.980;2024-02-15T03:29:20;7.03;;;5.35;;
5987;SDS011;3021;51.000;6.980;2024-02-15T03:31:46;7.15;;;5.60;;
5987;SDS011;3021;51.000;6.980;2024-02-15T03:34:14;7.60;;;6.88;;
5987;SDS011;3021;51.000;6.980;2024-02-15T03:36:40;11.43;;;10.60;;
5987;SDS011;3021;51.000;6.980;2024-02-15T03:39:06;6.88;;;6.18;;
5987;SDS011;3021;51.000;6.980;2024-02-15T03:41:33;6.32;;;3.15;;
5987;SDS011;3021;51.000;6.980;2024-02-15T03:43:58;4.00;;;2.80;;
5987;SDS011;3021;51.000;6.980;2024-02-15T03:46:25;7.93;;;7.00;;
5987;SDS011;3021;51.000;6.980;2024-02-15T03:48:50;5.33;;;4.13;;
5987;SDS011;3021;51.000;6.980;2024-02-15T03:51:16;4.23;;;3.10;;
5987;SDS011;3021;51.000;6.980;2024-02-15T03:53:45;6.65;;;3.97;;
5987;SDS011;3021;51.000;6.980;2024-02-15T03:56:11;5.57;;;4.57;;
5987;SDS011;3021;51.000;6.980;2024-02-15T03:58:37;3.77;;;3.10;;
5987;SDS011;3021;51.000;6.980;2024-02-15T04:01:03;6.43;;;4.82;;
5987;SDS011;3021;51.000;6.980;2024-02-15T04:03:31;5.82;;;3.53;;
5987;SDS011;3021;51.000;6.980;2024-02-15T04:05:57;9.03;;;6.40;;
5987;SDS011;3021;51.000;6.980;2024-02-15T04:08:23;4.68;;;3.72;;
5987;SDS011;3021;51.000;6.980;2024-02-15T04:10:48;7.83;;;6.23;;
5987;SDS011;3021;51.000;6.980;2024-02-15T04:13:14;4.80;;;4.17;;
5987;SDS011;3021;51.000;6.980;2024-02-15T04:15:39;5.03;;;4.55;;
5987;SDS011;3021;51.000;6.980;2024-02-15T04:18:06;6.82;;;6.22;;
5987;SDS011;3021;51.000;6.980;2024-02-15T04:20:33;8.53;;;6.57;;
5987;SDS011;3021;51.000;6.980;2024-02-15T04:22:58;4.63;;;3.77;;
5987;SDS011;3021;51.000;6.980;2024-02-15T04:25:24;5.70;;;5.10;;
5987;SDS011;3021;51.000;6.980;2024-02-15T04:27:53;5.13;;;4.05;;
5987;SDS011;3021;51.000;6.980;2024-02-15T04:30:18;5.13;;;3.63;;
5987;SDS011;3021;51.000;6.980;2024-02-15T04:32:45;11.75;;;10.65;;
5987;SDS011;3021;51.000;6.980;2024-02-15T04:35:11;7.38;;;4.78;;
5987;SDS011;3021;51.000;6.980;2024-02-15T04:37:37;4.65;;;3.25;;
5987;SDS011;3021;51.000;6.980;2024-02-15T04:40:03;7.33;;;5.63;;
5987;SDS011;3021;51.000;6.980;2024-02-15T04:42:35;5.55;;;4.32;;
5987;SDS011;3021;51.000;6.980;2024-02-15T04:45:04;5.50;;;3.78;;
5987;SDS011;3021;51.000;6.980;2024-02-15T04:47:33;5.15;;;4.65;;
5987;SDS011;3021;51.000;6.980;2024-02-15T04:49:59;5.73;;;4.07;;
5987;SDS011;3021;51.000;6.980;2024-02-15T04:52:24;5.60;;;4.35;;
5987;SDS011;3021;51.000;6.980;2024-02-15T04:54:50;3.88;;;3.35;;
5987;SDS011;3021;51.000;6.980;2024-02-15T04:57:15;6.23;;;4.23;;
5987;SDS011;3021;51.000;6.980;2024-02-15T04:59:41;6.35;;;4.07;;
5987;SDS011;3021;51.000;6.980;2024-02-15T05:02:12;7.63;;;3.78;;
5987;SDS011;3021;51.000;6.980;2024-02-15T05:04:37;4.68;;;4.28;;
5987;SDS011;3021;51.000;6.980;2024-02-15T05:07:03;5.53;;;4.87;;
5987;SDS011;3021;51.000;6.980;2024-02-15T05:09:29;5.33;;;3.43;;
5987;SDS011;3021;51.000;6.980;2024-02-15T05:11:56;3.63;;;2.90;;
5987;SDS011;3021;51.000;6.980;2024-02-15T05:14:22;6.27;;;4.77;;
5987;SDS011;3021;51.000;6.980;2024-02-15T05:16:48;4.95;;;4.45;;
5987;SDS011;3021;51.000;6.980;2024-02-15T05:19:15;4.78;;;4.38;;
5987;SDS011;3021;51.000;6.980;2024-02-15T05:21:44;6.05;;;5.65;;
5987;SDS011;3021;51.000;6.980;2024-02-15T05:24:12;5.90;;;4.97;;
5987;SDS011;3021;51.000;6.980;2024-02-15T05:26:38;3.78;;;3.47;;
5987;SDS011;3021;51.000;6.980;2024-02-15T05:29:04;7.13;;;4.18;;
5987;SDS011;3021;51.000;6.980;2024-02-15T05:31:30;6.47;;;4.10;;
5987;SDS011;3021;51.000;6.980;2024-02-15T05:33:55;4.20;;;3.57;;
5987;SDS011;3021;51.000;6.980;2024-02-15T05:36:21;5.77;;;3.13;;
5987;SDS011;3021;51.000;6.980;2024-02-15T05:38:48;4.38;;;3.33;;
5987;SDS011;3021;51.000;6.980;2024-02-15T05:41:17;4.38;;;3.45;;
5987;SDS011;3021;51.000;6.980;2024-02-15T05:43:44;3.85;;;3.50;;
5987;SDS011;3021;51.000;6.980;2024-02-15T05:46:10;4.53;;;3.73;;
5987;SDS011;3021;51.000;6.980;2024-02-15T05:48:36;4.32;;;3.58;;
5987;SDS011;3021;51.000;6.980;2024-02-15T05:51:06;6.80;;;3.60;;
5987;SDS011;3021;51.000;6.980;2024-02-15T05:53:32;4.47;;;2.70;;
5987;SDS011;3021;51.000;6.980;2024-02-15T05:56:04;7.43;;;3.58;;
5987;SDS011;3021;51.000;6.980;2024-02-15T05:58:32;5.30;;;4.00;;
5987;SDS011;3021;51.000;6.980;2024-02-15T06:00:58;8.32;;;5.57;;
5987;SDS011;3021;51.000;6.980;2024-02-15T06:03:29;5.35;;;3.30;;
5987;SDS011;3021;51.000;6.980;2024-02-15T06:05:56;8.27;;;4.47;;
5987;SDS011;3021;51.000;6.980;2024-02-15T06:08:26;8.48;;;4.30;;
5987;SDS011;3021;51.000;6.980;2024-02-15T06:10:52;11.82;;;10.93;;
5987;SDS011;3021;51.000;6.980;2024-02-15T06:13:18;9.32;;;4.18;;
5987;SDS011;3021;51.000;6.980;2024-02-15T06:15:44;515.63;;;484.23;;
5987;SDS011;3021;51.000;6.980;2024-02-15T06:18:12;217.90;;;205.88;;
5987;SDS011;3021;51.000;6.980;2024-02-15T06:20:39;175.13;;;165.38;;
5987;SDS011;3021;51.000;6.980;2024-02-15T06:23:05;187.00;;;176.57;;
5987;SDS011;3021;51.000;6.980;2024-02-15T06:25:32;165.63;;;156.43;;
5987;SDS011;3021;51.000;6.980;2024-02-15T06:27:58;146.25;;;138.20;;
5987;SDS011;3021;51.000;6.980;2024-02-15T06:30:27;150.57;;;142.13;;
5987;SDS011;3021;51.000;6.980;2024-02-15T06:33:12;160.23;;;151.23;;
5987;SDS011;3021;51.000;6.980;2024-02-15T06:35:55;151.65;;;143.35;;
5987;SDS011;3021;51.000;6.980;2024-02-15T06:38:39;157.55;;;148.90;;
5987;SDS011;3021;51.000;6.980;2024-02-15T06:41:23;141.43;;;133.82;;
5987;SDS011;3021;51.000;6.980;2024-02-15T06:43:50;145.17;;;137.30;;
5987;SDS011;3021;51.000;6.980;2024-02-15T06:46:15;143.43;;;135.73;;
5987;SDS011;3021;51.000;6.980;2024-02-15T06:48:43;147.03;;;138.93;;
5987;SDS011;3021;51.000;6.980;2024-02-15T06:51:11;134.75;;;127.53;;
5987;SDS011;3021;51.000;6.980;2024-02-15T06:53:40;150.88;;;142.77;;
5987;SDS011;3021;51.000;6.980;2024-02-15T06:56:08;140.63;;;133.07;;
5987;SDS011;3021;51.000;6.980;2024-02-15T06:58:35;154.50;;;145.18;;
5987;SDS011;3021;51.000;6.980;2024-02-15T07:01:00;154.55;;;145.85;;
5987;SDS011;3021;51.000;6.980;2024-02-15T07:03:27;145.18;;;137.30;;
5987;SDS011;3021;51.000;6.980;2024-02-15T07:05:54;139.90;;;131.82;;
5987;SDS011;3021;51.000;6.980;2024-02-15T07:08:21;145.95;;;138.07;;
5987;SDS011;3021;51.000;6.980;2024-02-15T07:10:48;165.60;;;156.38;;
5987;SDS011;3021;51.000;6.980;2024-02-15T07:13:13;166.82;;;157.45;;
5987;SDS011;3021;51.000;6.980;2024-02-15T07:15:39;155.80;;;147.03;;
5987;SDS011;3021;51.000;6.980;2024-02-15T07:18:05;150.53;;;142.07;;
5987;SDS011;3021;51.000;6.980;2024-02-15T07:20:31;169.52;;;159.88;;
5987;SDS011;3021;51.000;6.980;2024-02-15T07:22:57;162.43;;;153.20;;
5987;SDS011;3021;51.000;6.980;2024-02-15T07:25:23;177.87;;;167.93;;
5987;SDS011;3021;51.000;6.980;2024-02-15T07:27:48;183.80;;;173.40;;
5987;SDS011;3021;51.000;6.980;2024-02-15T07:30:14;160.57;;;151.60;;
5987;SDS011;3021;51.000;6.980;2024-02-15T07:32:39;177.80;;;167.63;;
5987;SDS011;3021;51.000;6.980;2024-02-15T07:35:05;158.27;;;149.43;;
5987;SDS011;3021;51.000;6.980;2024-02-15T07:37:32;158.25;;;149.45;;
5987;SDS011;3021;51.000;6.980;2024-02-15T07:39:58;163.25;;;154.20;;
5987;SDS011;3021;51.000;6.980;2024-02-15T07:42:24;170.25;;;160.65;;
5987;SDS011;3021;51.000;6.980;2024-02-15T07:44:50;174.80;;;164.87;;
5987;SDS011;3021;51.000;6.980;2024-02-15T07:47:18;161.90;;;152.57;;
5987;SDS011;3021;51.000;6.980;2024-02-15T07:49:47;155.95;;;147.30;;
5987;SDS011;3021;51.000;6.980;2024-02-15T07:52:13;139.90;;;132.53;;
5987;SDS011;3021;51.000;6.980;2024-02-15T07:54:38;131.63;;;124.30;;
5987;SDS011;3021;51.000;6.980;2024-02-15T07:57:04;140.77;;;132.95;;
5987;SDS011;3021;51.000;6.980;2024-02-15T07:59:30;139.50;;;131.83;;
5987;SDS011;3021;51.000;6.980;2024-02-15T08:01:55;132.50;;;124.72;;
5987;SDS011;3021;51.000;6.980;2024-02-15T08:04:20;137.03;;;129.50;;
5987;SDS011;3021;51.000;6.980;2024-02-15T08:06:46;129.65;;;122.55;;
5987;SDS011;3021;51.000;6.980;2024-02-15T08:09:13;143.05;;;135.25;;
5987;SDS011;3021;51.000;6.980;2024-02-15T08:11:42;147.52;;;139.30;;
5987;SDS011;3021;51.000;6.980;2024-02-15T08:14:08;154.05;;;145.45;;
5987;SDS011;3021;51.000;6.980;2024-02-15T08:16:36;137.75;;;130.25;;
5987;SDS011;3021;51.000;6.980;2024-02-15T08:19:02;150.68;;;142.18;;
5987;SDS011;3021;51.000;6.980;2024-02-15T08:21:31;149.18;;;140.80;;
5987;SDS011;3021;51.000;6.980;2024-02-15T08:24:03;150.33;;;142.10;;
5987;SDS011;3021;51.000;6.980;2024-02-15T08:26:39;137.73;;;130.20;;
5987;SDS011;3021;51.000;6.980;2024-02-15T08:29:06;144.00;;;135.98;;
5987;SDS011;3021;51.000;6.980;2024-02-15T08:31:31;146.87;;;138.77;;
5987;SDS011;3021;51.000;6.980;2024-02-15T08:33:58;164.07;;;154.95;;
5987;SDS011;3021;51.000;6.980;2024-02-15T08:36:25;162.27;;;153.43;;
5987;SDS011;3021;51.000;6.980;2024-02-15T08:38:51;147.03;;;139.13;;
5987;SDS011;3021;51.000;6.980;2024-02-15T08:41:16;152.70;;;144.30;;
5987;SDS011;3021;51.000;6.980;2024-02-15T08:43:43;162.77;;;153.80;;
5987;SDS011;3021;51.000;6.980;2024-02-15T08:46:09;152.93;;;144.45;;
5987;SDS011;3021;51.000;6.980;2024-02-15T08:48:35;160.97;;;152.03;;
5987;SDS011;3021;51.000;6.980;2024-02-15T08:51:01;179.87;;;169.97;;
5987;SDS011;3021;51.000;6.980;2024-02-15T08:53:26;159.50;;;150.43;;
5987;SDS011;3021;51.000;6.980;2024-02-15T08:55:52;164.18;;;155.15;;
5987;SDS011;3021;51.000;6.980;2024-02-15T08:58:18;171.60;;;162.07;;
5987;SDS011;3021;51.000;6.980;2024-02-15T09:00:46;167.57;;;158.30;;
5987;SDS011;3021;51.000;6.980;2024-02-15T09:03:11;182.23;;;171.73;;
5987;SDS011;3021;51.000;6.980;2024-02-15T09:05:38;166.17;;;156.77;;
5987;SDS011;3021;51.000;6.980;2024-02-15T09:08:03;178.20;;;168.02;;
5987;SDS011;3021;51.000;6.980;2024-02-15T09:10:32;188.13;;;177.35;;
5987;SDS011;3021;51.000;6.980;2024-02-15T09:12:57;172.50;;;162.80;;
5987;SDS011;3021;51.000;6.980;2024-02-15T09:15:23;172.88;;;163.13;;
5987;SDS011;3021;51.000;6.980;2024-02-15T09:17:48;180.90;;;170.77;;
5987;SDS011;3021;51.000;6.980;2024-02-15T09:20:17;163.07;;;153.98;;
5987;SDS011;3021;51.000;6.980;2024-02-15T09:22:49;167.73;;;158.30;;
5987;SDS011;3021;51.000;6.980;2024-02-15T09:25:15;174.80;;;164.85;;
5987;SDS011;3021;51.000;6.980;2024-02-15T09:27:42;163.63;;;154.43;;
5987;SDS011;3021;51.000;6.980;2024-02-15T09:30:07;168.85;;;159.48;;
5987;SDS011;3021;51.000;6.980;2024-02-15T09:32:35;162.32;;;153.00;;
5987;SDS011;3021;51.000;6.980;2024-02-15T09:35:01;173.77;;;163.88;;
5987;SDS011;3021;51.000;6.980;2024-02-15T09:37:26;182.15;;;171.90;;
5987;SDS011;3021;51.000;6.980;2024-02-15T09:39:53;169.65;;;160.13;;
5987;SDS011;3021;51.000;6.980;2024-02-15T09:42:20;168.38;;;158.90;;
5987;SDS011;3021;51.000;6.980;2024-02-15T09:44:45;177.10;;;166.95;;
5987;SDS011;3021;51.000;6.980;2024-02-15T09:47:12;174.65;;;164.65;;
5987;SDS011;3021;51.000;6.980;2024-02-15T09:49:38;156.32;;;147.63;;
5987;SDS011;3021;51.000;6.980;2024-02-15T09:52:08;150.32;;;141.98;;
5987;SDS011;3021;51.000;6.980;2024-02-15T09:54:40;168.35;;;158.90;;
5987;SDS011;3021;51.000;6.980;2024-02-15T09:57:08;171.80;;;162.15;;
5987;SDS011;3021;51.000;6.980;2024-02-15T09:59:35;157.53;;;148.70;;
5987;SDS011;3021;51.000;6.980;2024-02-15T10:02:01;154.60;;;145.87;;
5987;SDS011;3021;51.000;6.980;2024-02-15T10:04:27;148.27;;;139.85;;
5987;SDS011;3021;51.000;6.980;2024-02-15T10:06:53;155.85;;;147.15;;
5987;SDS011;3021;51.000;6.980;2024-02-15T10:11:57;162.43;;;152.70;;
5987;SDS011;3021;51.000;6.980;2024-02-15T10:14:26;164.57;;;155.02;;
5987;SDS011;3021;51.000;6.980;2024-02-15T10:16:53;151.75;;;143.30;;
5987;SDS011;3021;51.000;6.980;2024-02-15T10:19:20;152.95;;;144.45;;
5987;SDS011;3021;51.000;6.980;2024-02-15T10:21:52;150.35;;;141.93;;
5987;SDS011;3021;51.000;6.980;2024-02-15T10:24:21;164.48;;;155.02;;
5987;SDS011;3021;51.000;6.980;2024-02-15T10:26:49;165.25;;;155.60;;
5987;SDS011;3021;51.000;6.980;2024-02-15T10:29:14;161.97;;;152.50;;
5987;SDS011;3021;51.000;6.980;2024-02-15T10:31:55;171.55;;;161.75;;
5987;SDS011;3021;51.000;6.980;2024-02-15T10:34:24;172.40;;;162.50;;
5987;SDS011;3021;51.000;6.980;2024-02-15T10:36:53;180.82;;;170.18;;
5987;SDS011;3021;51.000;6.980;2024-02-15T10:39:37;168.95;;;159.32;;
5987;SDS011;3021;51.000;6.980;2024-02-15T10:42:03;161.77;;;152.48;;
5987;SDS011;3021;51.000;6.980;2024-02-15T10:44:31;152.98;;;144.38;;
5987;SDS011;3021;51.000;6.980;2024-02-15T10:46:59;164.30;;;154.75;;
5987;SDS011;3021;51.000;6.980;2024-02-15T10:49:26;159.13;;;150.18;;
5987;SDS011;3021;51.000;6.980;2024-02-15T10:51:56;164.68;;;155.20;;
5987;SDS011;3021;51.000;6.980;2024-02-15T10:55:08;160.45;;;151.30;;
5987;SDS011;3021;51.000;6.980;2024-02-15T10:57:12;159.63;;;150.35;;
5987;SDS011;3021;51.000;6.980;2024-02-15T10:59:42;162.30;;;153.07;;
5987;SDS011;3021;51.000;6.980;2024-02-15T11:02:19;162.73;;;153.25;;
5987;SDS011;3021;51.000;6.980;2024-02-15T11:04:53;164.95;;;155.55;;
5987;SDS011;3021;51.000;6.980;2024-02-15T11:07:25;167.57;;;157.83;;
5987;SDS011;3021;51.000;6.980;2024-02-15T11:09:52;172.73;;;162.82;;
5987;SDS011;3021;51.000;6.980;2024-02-15T11:12:18;175.63;;;165.43;;
5987;SDS011;3021;51.000;6.980;2024-02-15T11:14:45;169.18;;;159.35;;
5987;SDS011;3021;51.000;6.980;2024-02-15T11:17:10;163.15;;;153.93;;
5987;SDS011;3021;51.000;6.980;2024-02-15T11:22:12;177.75;;;167.48;;
5987;SDS011;3021;51.000;6.980;2024-02-15T11:27:29;178.37;;;167.53;;
5987;SDS011;3021;51.000;6.980;2024-02-15T11:29:57;186.52;;;175.35;;
5987;SDS011;3021;51.000;6.980;2024-02-15T11:42:55;149.27;;;140.52;;
5987;SDS011;3021;51.000;6.980;2024-02-15T11:45:25;154.93;;;146.13;;
5987;SDS011;3021;51.000;6.980;2024-02-15T11:47:52;152.85;;;144.13;;
5987;SDS011;3021;51.000;6.980;2024-02-15T11:50:19;154.40;;;145.48;;
5987;SDS011;3021;51.000;6.980;2024-02-15T11:52:46;153.77;;;144.87;;
5987;SDS011;3021;51.000;6.980;2024-02-15T11:55:18;156.13;;;147.07;;
5987;SDS011;3021;51.000;6.980;2024-02-15T11:57:55;145.80;;;137.23;;
5987;SDS011;3021;51.000;6.980;2024-02-15T12:00:33;157.05;;;148.02;;
5987;SDS011;3021;51.000;6.980;2024-02-15T12:03:17;147.18;;;138.75;;
5987;SDS011;3021;51.000;6.980;2024-02-15T12:06:02;162.57;;;153.02;;
5987;SDS011;3021;51.000;6.980;2024-02-15T12:08:46;146.15;;;137.70;;
5987;SDS011;3021;51.000;6.980;2024-02-15T12:11:31;161.05;;;151.45;;
5987;SDS011;3021;51.000;6.980;2024-02-15T12:14:15;167.70;;;157.65;;
5987;SDS011;3021;51.000;6.980;2024-02-15T12:17:01;158.30;;;149.10;;
5987;SDS011;3021;51.000;6.980;2024-02-15T12:19:49;157.27;;;148.23;;
5987;SDS011;3021;51.000;6.980;2024-02-15T12:22:19;146.48;;;138.15;;
5987;SDS011;3021;51.000;6.980;2024-02-15T12:25:07;163.27;;;153.77;;
5987;SDS011;3021;51.000;6.980;2024-02-15T12:27:39;150.00;;;141.38;;
5987;SDS011;3021;51.000;6.980;2024-02-15T12:30:05;157.13;;;147.77;;
5987;SDS011;3021;51.000;6.980;2024-02-15T12:32:33;143.53;;;135.23;;
5987;SDS011;3021;51.000;6.980;2024-02-15T12:35:11;147.73;;;139.10;;
5987;SDS011;3021;51.000;6.980;2024-02-15T12:37:41;145.82;;;137.38;;
5987;SDS011;3021;51.000;6.980;2024-02-15T12:42:43;155.57;;;146.60;;
5987;SDS011;3021;51.000;6.980;2024-02-15T12:45:24;144.82;;;136.52;;
5987;SDS011;3021;51.000;6.980;2024-02-15T12:47:52;141.43;;;133.25;;
5987;SDS011;3021;51.000;6.980;2024-02-15T12:50:20;136.13;;;128.32;;
5987;SDS011;3021;51.000;6.980;2024-02-15T12:52:47;132.43;;;124.85;;
5987;SDS011;3021;51.000;6.980;2024-02-15T12:55:13;137.23;;;129.35;;
5987;SDS011;3021;51.000;6.980;2024-02-15T12:57:41;145.43;;;136.97;;
5987;SDS011;3021;51.000;6.980;2024-02-15T13:00:11;131.07;;;123.68;;
5987;SDS011;3021;51.000;6.980;2024-02-15T13:02:49;135.32;;;127.57;;
5987;SDS011;3021;51.000;6.980;2024-02-15T13:05:19;131.68;;;124.00;;
5987;SDS011;3021;51.000;6.980;2024-02-15T13:07:46;143.77;;;135.40;;
5987;SDS011;3021;51.000;6.980;2024-02-15T13:10:15;138.23;;;130.32;;
5987;SDS011;3021;51.000;6.980;2024-02-15T13:12:41;129.43;;;121.63;;
5987;SDS011;3021;51.000;6.980;2024-02-15T13:15:08;141.13;;;133.10;;
5987;SDS011;3021;51.000;6.980;2024-02-15T13:17:39;141.15;;;133.15;;
5987;SDS011;3021;51.000;6.980;2024-02-15T13:20:05;143.75;;;135.40;;
5987;SDS011;3021;51.000;6.980;2024-02-15T13:22:36;156.23;;;146.57;;
5987;SDS011;3021;51.000;6.980;2024-02-15T13:25:03;162.80;;;153.18;;
5987;SDS011;3021;51.000;6.980;2024-02-15T13:27:29;160.70;;;151.13;;
5987;SDS011;3021;51.000;6.980;2024-02-15T13:29:54;162.25;;;152.48;;
5987;SDS011;3021;51.000;6.980;2024-02-15T13:32:20;146.50;;;137.83;;
5987;SDS011;3021;51.000;6.980;2024-02-15T13:34:47;151.77;;;142.93;;
5987;SDS011;3021;51.000;6.980;2024-02-15T13:37:16;142.57;;;134.15;;
5987;SDS011;3021;51.000;6.980;2024-02-15T13:39:48;146.45;;;137.90;;
5987;SDS011;3021;51.000;6.980;2024-02-15T13:42:13;132.63;;;124.85;;
5987;SDS011;3021;51.000;6.980;2024-02-15T13:44:38;121.60;;;114.70;;
5987;SDS011;3021;51.000;6.980;2024-02-15T13:47:04;111.43;;;105.50;;
5987;SDS011;3021;51.000;6.980;2024-02-15T13:49:30;109.43;;;103.40;;
5987;SDS011;3021;51.000;6.980;2024-02-15T13:51:56;113.45;;;107.25;;
5987;SDS011;3021;51.000;6.980;2024-02-15T13:54:27;138.88;;;130.88;;
5987;SDS011;3021;51.000;6.980;2024-02-15T13:56:53;127.50;;;120.18;;
5987;SDS011;3021;51.000;6.980;2024-02-15T13:59:19;131.93;;;124.47;;
5987;SDS011;3021;51.000;6.980;2024-02-15T14:01:44;133.97;;;126.43;;
5987;SDS011;3021;51.000;6.980;2024-02-15T14:04:10;121.35;;;114.45;;
5987;SDS011;3021;51.000;6.980;2024-02-15T14:06:36;128.15;;;120.93;;
5987;SDS011;3021;51.000;6.980;2024-02-15T14:09:04;132.70;;;125.07;;
5987;SDS011;3021;51.000;6.980;2024-02-15T14:11:31;130.50;;;123.25;;
5987;SDS011;3021;51.000;6.980;2024-02-15T14:13:56;135.00;;;127.50;;
5987;SDS011;3021;51.000;6.980;2024-02-15T14:16:23;141.45;;;133.45;;
5987;SDS011;3021;51.000;6.980;2024-02-15T14:18:48;159.23;;;149.73;;
5987;SDS011;3021;51.000;6.980;2024-02-15T14:21:15;149.05;;;140.23;;
5987;SDS011;3021;51.000;6.980;2024-02-15T14:23:41;144.90;;;136.70;;
5987;SDS011;3021;51.000;6.980;2024-02-15T14:26:07;141.02;;;133.07;;
5987;SDS011;3021;51.000;6.980;2024-02-15T14:28:32;137.33;;;129.40;;
5987;SDS011;3021;51.000;6.980;2024-02-15T14:30:59;134.43;;;126.82;;
5987;SDS011;3021;51.000;6.980;2024-02-15T14:33:44;149.55;;;140.98;;
5987;SDS011;3021;51.000;6.980;2024-02-15T14:36:09;133.93;;;126.43;;
5987;SDS011;3021;51.000;6.980;2024-02-15T14:38:34;143.90;;;135.50;;
5987;SDS011;3021;51.000;6.980;2024-02-15T14:41:00;153.20;;;144.05;;
5987;SDS011;3021;51.000;6.980;2024-02-15T14:43:27;146.30;;;137.75;;
5987;SDS011;3021;51.000;6.980;2024-02-15T14:45:53;156.35;;;147.20;;
5987;SDS011;3021;51.000;6.980;2024-02-15T14:48:21;162.50;;;152.80;;
5987;SDS011;3021;51.000;6.980;2024-02-15T14:50:48;160.88;;;151.32;;
5987;SDS011;3021;51.000;6.980;2024-02-15T14:53:15;152.68;;;143.73;;
5987;SDS011;3021;51.000;6.980;2024-02-15T14:55:41;159.10;;;149.70;;
5987;SDS011;3021;51.000;6.980;2024-02-15T14:58:11;160.05;;;150.27;;
5987;SDS011;3021;51.000;6.980;2024-02-15T15:00:37;171.23;;;160.90;;
5987;SDS011;3021;51.000;6.980;2024-02-15T15:03:04;161.40;;;151.82;;